Time;durP1;ratioP1;P1;durP2;ratioP2;P2;SDS_P1;SDS_P2;PMS_P1;PMS_P2;Temp;Humidity;BMP_temperature;BMP_pressure;BME280_temperature;BME280_humidity;BME280_pressure;Samples;Min_cycle;Max_cycle;Signal;HPM_P1;HPM_P2
2023/09/12 00:01:06;;;;;;;;;3.75;3.75;;;;;27.74;43.26;100786.03;4921697;28;45686;-43
2023/09/12 00:03:32;;;;;;;;;3.25;3.25;;;;;27.73;43.39;100789.66;4904424;28;45593;-42
2023/09/12 00:05:59;;;;;;;;;4.75;3.75;;;;;27.71;43.30;100788.97;4921704;28;45241;-45
2023/09/12 00:08:25;;;;;;;;;3.50;3.50;;;;;27.68;43.55;100791.91;4921868;28;45539;-44
2023/09/12 00:11:10;;;;;;;;;5.00;5.00;;;;;27.66;43.32;100791.19;4921439;28;46178;-44
2023/09/12 00:13:37;;;;;;;;;1.25;1.00;;;;;27.62;43.20;100795.06;4921734;28;45562;-42
2023/09/12 00:16:03;;;;;;;;;3.25;3.25;;;;;27.60;43.52;100787.22;4921535;28;45378;-43
2023/09/12 00:18:29;;;;;;;;;4.00;4.00;;;;;27.59;43.70;100780.22;4921708;28;46069;-42
2023/09/12 00:20:54;;;;;;;;;5.25;4.00;;;;;27.57;44.14;100786.66;4921094;28;45416;-46
2023/09/12 00:23:22;;;;;;;;;4.00;3.00;;;;;27.55;43.96;100794.78;4921160;28;45323;-39
2023/09/12 00:25:47;;;;;;;;;4.00;3.00;;;;;27.55;43.87;100792.13;4921347;28;45294;-41
2023/09/12 00:28:12;;;;;;;;;4.00;4.00;;;;;27.54;44.03;100792.25;4921531;28;45385;-43
2023/09/12 00:30:38;;;;;;;;;6.00;4.25;;;;;27.52;44.10;100779.06;4920829;28;60957;-42
2023/09/12 00:33:04;;;;;;;;;3.50;2.00;;;;;27.52;44.00;100787.06;4919725;28;51684;-41
2023/09/12 00:35:29;;;;;;;;;7.75;4.00;;;;;27.51;43.84;100787.19;4921181;28;45352;-40
2023/09/12 00:37:54;;;;;;;;;3.75;3.50;;;;;27.51;43.73;100787.19;4920992;28;48526;-43
2023/09/12 00:40:19;;;;;;;;;5.75;4.75;;;;;27.53;44.07;100790.56;4920788;28;46435;-39
2023/09/12 00:42:45;;;;;;;;;4.00;4.00;;;;;27.51;44.07;100787.19;4920447;28;57886;-41
2023/09/12 00:45:10;;;;;;;;;4.75;4.25;;;;;27.50;44.21;100788.19;4903820;28;45423;-43
2023/09/12 00:47:36;;;;;;;;;4.50;4.00;;;;;27.49;44.06;100784.66;4920849;28;45517;-40
2023/09/12 00:50:04;;;;;;;;;4.50;3.25;;;;;27.49;44.07;100784.66;4920717;28;46566;-45
2023/09/12 00:52:33;;;;;;;;;4.00;4.00;;;;;27.48;44.31;100782.13;4920687;28;45660;-41
2023/09/12 00:54:58;;;;;;;;;3.00;3.00;;;;;27.45;44.08;100778.75;4920919;28;45250;-43
2023/09/12 00:57:25;;;;;;;;;4.00;3.25;;;;;27.45;44.03;100778.75;4921168;28;45560;-40
2023/09/12 00:59:52;;;;;;;;;4.25;4.25;;;;;27.44;44.22;100782.41;4920561;28;46361;-41
2023/09/12 01:02:19;;;;;;;;;5.50;3.25;;;;;27.42;44.33;100781.66;4919392;28;45749;-41
2023/09/12 01:04:44;;;;;;;;;7.25;3.75;;;;;27.44;44.38;100781.56;4920770;28;45540;-41
2023/09/12 01:07:10;;;;;;;;;4.75;4.00;;;;;27.42;44.70;100780.81;4921258;28;45592;-43
2023/09/12 01:09:35;;;;;;;;;5.75;5.75;;;;;27.42;44.28;100784.31;4920455;28;46291;-40
2023/09/12 01:12:03;;;;;;;;;5.00;4.00;;;;;27.41;44.15;100785.28;4920546;28;45280;-44
2023/09/12 01:14:30;;;;;;;;;4.00;4.00;;;;;27.39;44.31;100781.06;4920556;28;45336;-40
2023/09/12 01:16:56;;;;;;;;;5.50;4.00;;;;;27.35;44.97;100776.97;4920773;28;45518;-41
2023/09/12 01:19:23;;;;;;;;;5.75;3.50;;;;;27.31;44.65;100771.06;4919176;28;45376;-45
2023/09/12 01:22:07;;;;;;;;;4.75;3.00;;;;;27.31;44.66;100771.94;4920282;28;45402;-41
2023/09/12 01:25:04;;;;;;;;;7.00;4.00;;;;;27.30;45.05;100761.41;4920593;28;45321;-41
2023/09/12 01:27:38;;;;;;;;;4.25;4.00;;;;;27.29;44.87;100754.41;4920605;28;45315;-41
2023/09/12 01:30:08;;;;;;;;;4.00;4.00;;;;;27.28;44.84;100755.41;4920183;28;45409;-47
2023/09/12 01:32:35;;;;;;;;;3.50;3.50;;;;;27.27;44.81;100759.84;4920317;28;45419;-43
2023/09/12 01:35:03;;;;;;;;;6.25;5.00;;;;;27.28;44.92;100771.38;4920214;28;45449;-42
2023/09/12 01:37:31;;;;;;;;;7.00;5.25;;;;;27.27;44.65;100780.31;4920522;28;45478;-43
2023/09/12 01:39:57;;;;;;;;;5.75;4.75;;;;;27.25;45.10;100779.59;4919521;28;46343;-43
2023/09/12 01:42:22;;;;;;;;;6.25;4.25;;;;;27.24;44.81;100789.38;4920034;28;45459;-39
2023/09/12 01:44:54;;;;;;;;;7.00;6.00;;;;;27.25;45.17;100782.25;4920246;28;45296;-41
2023/09/12 01:47:21;;;;;;;;;4.25;4.25;;;;;27.24;45.08;100785.88;4920156;28;45490;-42
2023/09/12 01:49:49;;;;;;;;;6.00;5.00;;;;;27.25;44.77;100784.91;4919925;28;46067;-43
2023/09/12 01:52:15;;;;;;;;;3.75;3.75;;;;;27.25;45.13;100782.25;4920038;28;45574;-42
2023/09/12 01:54:42;;;;;;;;;6.25;6.25;;;;;27.25;45.11;100777.78;4920248;28;45419;-46
2023/09/12 01:57:08;;;;;;;;;6.75;5.75;;;;;27.26;45.16;100782.13;4920210;28;45307;-42
2023/09/12 01:59:34;;;;;;;;;3.75;3.75;;;;;27.28;45.15;100776.69;4918723;28;45435;-39
2023/09/12 02:02:02;;;;;;;;;6.00;6.00;;;;;27.27;45.42;100777.66;4920157;28;45483;-42
2023/09/12 02:04:27;;;;;;;;;6.75;5.00;;;;;27.26;45.53;100783.94;4902867;28;45239;-40
2023/09/12 02:06:53;;;;;;;;;5.75;5.75;;;;;27.25;45.18;100783.09;4920102;28;45238;-39
2023/09/12 02:09:18;;;;;;;;;6.00;6.00;;;;;27.23;45.24;100785.03;4919676;28;45348;-41
2023/09/12 02:11:46;;;;;;;;;7.00;5.25;;;;;27.20;45.56;100787.97;4920023;28;45241;-42
2023/09/12 02:14:11;;;;;;;;;6.50;6.50;;;;;27.13;45.41;100787.66;4918911;28;45364;-39
2023/09/12 02:16:37;;;;;;;;;7.00;6.00;;;;;27.12;45.69;100783.31;4919831;28;45164;-44
2023/09/12 02:19:03;;;;;;;;;4.00;4.00;;;;;27.11;45.17;100784.28;4919463;28;46160;-48
2023/09/12 02:21:28;;;;;;;;;7.25;6.00;;;;;27.10;45.88;100779.91;4919409;28;45328;-44
2023/09/12 02:23:54;;;;;;;;;7.25;6.00;;;;;27.05;45.53;100771.50;4919374;28;45390;-42
2023/09/12 02:26:19;;;;;;;;;5.25;5.25;;;;;27.06;45.77;100772.34;4919636;28;45481;-42
2023/09/12 02:28:45;;;;;;;;;7.00;6.25;;;;;27.04;45.42;100777.78;4919700;28;46618;-43
2023/09/12 02:31:11;;;;;;;;;7.00;7.00;;;;;27.01;45.69;100770.06;4919347;28;45708;-44
2023/09/12 02:33:40;;;;;;;;;6.25;6.25;;;;;26.99;46.02;100777.31;4919425;28;45308;-44
2023/09/12 02:36:06;;;;;;;;;5.75;5.25;;;;;26.98;45.77;100780.94;4919472;28;45265;-42
2023/09/12 02:38:34;;;;;;;;;5.25;5.25;;;;;26.97;45.81;100776.59;4919024;28;46626;-44
2023/09/12 02:40:59;;;;;;;;;5.25;5.00;;;;;26.95;45.82;100781.22;4901814;28;45710;-44
2023/09/12 02:43:24;;;;;;;;;4.00;4.00;;;;;26.93;46.08;100780.50;4919286;28;45453;-47
2023/09/12 02:45:50;;;;;;;;;6.75;6.00;;;;;26.94;46.28;100780.38;4919233;28;45484;-39
2023/09/12 02:48:15;;;;;;;;;5.50;5.50;;;;;26.90;46.13;100773.63;4902117;28;48414;-40
2023/09/12 02:50:40;;;;;;;;;10.25;6.25;;;;;26.89;45.95;100771.09;4919154;28;45459;-42
2023/09/12 02:53:06;;;;;;;;;7.00;5.50;;;;;26.87;45.93;100773.03;4919008;28;45440;-44
2023/09/12 02:55:31;;;;;;;;;7.50;5.75;;;;;26.86;46.19;100772.19;4919165;28;45391;-41
2023/09/12 02:57:57;;;;;;;;;5.75;5.25;;;;;26.83;45.97;100767.13;4918561;28;46321;-44
2023/09/12 03:00:22;;;;;;;;;7.25;6.25;;;;;26.79;46.50;100771.88;4918986;28;45422;-44
2023/09/12 03:02:47;;;;;;;;;6.25;5.25;;;;;26.78;46.38;100775.50;4919101;28;46821;-42
2023/09/12 03:05:13;;;;;;;;;7.25;6.25;;;;;26.75;46.40;100773.06;4918635;28;53433;-45
2023/09/12 03:07:38;;;;;;;;;6.25;6.25;;;;;26.74;46.79;100767.88;4918829;28;45396;-40
2023/09/12 03:10:04;;;;;;;;;7.00;6.00;;;;;26.73;46.63;100771.50;4901565;28;45269;-41
2023/09/12 03:12:29;;;;;;;;;9.25;6.00;;;;;26.69;46.37;100760.28;4918623;28;45276;-45
2023/09/12 03:14:56;;;;;;;;;7.75;5.75;;;;;26.68;46.62;100763.91;4918668;28;50437;-41
2023/09/12 03:17:21;;;;;;;;;6.50;5.50;;;;;26.64;46.44;100765.97;4918834;28;46647;-39
2023/09/12 03:19:46;;;;;;;;;6.25;5.00;;;;;26.59;46.76;100765.50;4918967;28;45241;-45
2023/09/12 03:22:12;;;;;;;;;5.75;5.00;;;;;26.60;46.63;100782.31;4918673;28;45156;-44
2023/09/12 03:24:37;;;;;;;;;8.00;7.25;;;;;26.57;46.94;100779.91;4918825;28;45625;-40
2023/09/12 03:27:03;;;;;;;;;6.00;4.25;;;;;26.53;46.75;100785.47;4918051;28;60071;-42
2023/09/12 03:29:28;;;;;;;;;7.00;7.00;;;;;26.51;46.82;100781.25;4918608;28;45432;-41
2023/09/12 03:31:53;;;;;;;;;6.25;6.00;;;;;26.46;47.03;100784.28;4918269;28;54019;-41
2023/09/12 03:34:19;;;;;;;;;7.75;6.25;;;;;26.46;46.84;100794.09;4901681;28;45604;-39
2023/09/12 03:36:44;;;;;;;;;5.00;5.00;;;;;26.45;47.01;100800.38;4918163;28;54487;-45
2023/09/12 03:39:10;;;;;;;;;5.25;4.00;;;;;26.41;47.08;100789.13;4918252;28;47268;-44
2023/09/12 03:41:39;;;;;;;;;6.00;5.50;;;;;26.40;47.18;100790.13;4918595;28;45426;-42
2023/09/12 03:44:08;;;;;;;;;8.75;8.00;;;;;26.36;47.05;100786.84;4918793;28;45461;-46
2023/09/12 03:46:33;;;;;;;;;7.75;5.75;;;;;26.35;47.21;100792.28;4918313;28;46552;-47
2023/09/12 03:48:58;;;;;;;;;3.00;3.00;;;;;26.34;47.25;100796.78;4918449;28;45444;-44
2023/09/12 03:51:24;;;;;;;;;7.00;6.00;;;;;26.33;47.31;100796.88;4918280;28;47036;-46
2023/09/12 03:53:49;;;;;;;;;9.00;7.50;;;;;26.32;47.05;100798.69;4918882;28;45280;-42
2023/09/12 03:56:15;;;;;;;;;8.00;6.25;;;;;26.31;47.51;100806.78;4901065;28;48263;-40
2023/09/12 03:58:41;;;;;;;;;6.50;6.00;;;;;26.31;47.40;100809.44;4918267;28;45362;-43
2023/09/12 04:01:06;;;;;;;;;9.00;6.50;;;;;26.29;47.37;100812.22;4901165;28;45449;-47
2023/09/12 04:03:32;;;;;;;;;7.00;6.00;;;;;26.28;47.75;100809.72;4918460;28;45353;-42
2023/09/12 04:05:57;;;;;;;;;7.00;5.75;;;;;26.27;47.80;100808.84;4918089;28;46511;-40
2023/09/12 04:08:22;;;;;;;;;5.00;5.00;;;;;26.26;47.78;100801.00;4918149;28;45403;-41
2023/09/12 04:10:48;;;;;;;;;9.75;7.25;;;;;26.24;47.61;100788.69;4918533;28;45388;-44
2023/09/12 04:13:13;;;;;;;;;7.25;7.00;;;;;26.24;47.87;100790.47;4917763;28;56685;-45
2023/09/12 04:15:38;;;;;;;;;7.50;7.00;;;;;26.23;47.94;100787.00;4918005;28;45321;-41
2023/09/12 04:18:04;;;;;;;;;6.00;5.50;;;;;26.23;47.78;100789.66;4917729;28;53708;-44
2023/09/12 04:20:29;;;;;;;;;6.25;6.25;;;;;26.22;47.32;100784.47;4918026;28;45470;-41
2023/09/12 04:22:55;;;;;;;;;7.00;6.00;;;;;26.22;48.09;100780.00;4918655;28;46250;-43
2023/09/12 04:25:20;;;;;;;;;7.00;7.00;;;;;26.23;47.66;100792.31;4920682;28;64596;-44
2023/09/12 04:27:46;;;;;;;;;7.50;7.00;;;;;26.27;47.73;100806.19;4921027;28;50371;-42
2023/09/12 04:30:11;;;;;;;;;10.00;8.25;;;;;26.29;47.54;100811.41;4921296;28;45380;-46
2023/09/12 04:32:37;;;;;;;;;10.25;7.50;;;;;26.32;47.69;100811.13;4921466;28;45251;-44
2023/09/12 04:35:03;;;;;;;;;7.75;7.75;;;;;26.32;47.42;100805.81;4920986;28;46048;-42
2023/09/12 04:37:28;;;;;;;;;8.75;7.50;;;;;26.32;47.48;100811.13;4921133;28;45761;-40
2023/09/12 04:39:53;;;;;;;;;10.00;7.50;;;;;26.31;47.77;100815.63;4921116;28;45410;-37
2023/09/12 04:42:19;;;;;;;;;8.50;6.75;;;;;26.32;47.68;100817.31;4921601;28;45457;-39
2023/09/12 04:44:44;;;;;;;;;7.75;7.00;;;;;26.33;47.60;100810.16;4920900;28;46526;-39
2023/09/12 04:47:09;;;;;;;;;10.50;8.00;;;;;26.34;47.61;100819.81;4920807;28;45279;-41
2023/09/12 04:49:35;;;;;;;;;7.00;6.50;;;;;26.35;47.40;100818.84;4920869;28;45413;-38
2023/09/12 04:52:00;;;;;;;;;11.00;10.00;;;;;26.34;47.78;100820.69;4921076;28;45459;-43
2023/09/12 04:54:26;;;;;;;;;8.00;7.00;;;;;26.34;47.35;100820.69;4920625;28;46207;-42
2023/09/12 04:56:51;;;;;;;;;7.00;5.50;;;;;26.34;47.41;100823.34;4921091;28;45332;-40
2023/09/12 04:59:16;;;;;;;;;9.50;9.50;;;;;26.35;47.45;100810.88;4920864;28;45366;-47
2023/09/12 05:01:42;;;;;;;;;9.00;8.50;;;;;26.36;47.48;100816.06;4920468;28;45311;-44
2023/09/12 05:04:08;;;;;;;;;11.75;9.50;;;;;26.35;48.06;100810.88;4920519;28;45381;-45
2023/09/12 05:06:34;;;;;;;;;12.75;11.50;;;;;26.35;47.67;100810.88;4920719;28;45279;-42
2023/09/12 05:08:59;;;;;;;;;11.50;10.00;;;;;26.34;47.69;100810.06;4920825;28;45303;-40
2023/09/12 05:11:25;;;;;;;;;9.25;9.25;;;;;26.33;48.06;100799.53;4921059;28;45592;-43
2023/09/12 05:13:51;;;;;;;;;12.00;10.00;;;;;26.31;47.74;100806.78;4920422;28;46493;-39
2023/09/12 05:16:16;;;;;;;;;12.50;10.00;;;;;26.29;48.01;100808.75;4920416;28;45479;-41
2023/09/12 05:18:42;;;;;;;;;17.00;11.00;;;;;26.29;48.14;100819.38;4920441;28;45149;-41
2023/09/12 05:21:07;;;;;;;;;9.00;9.00;;;;;26.29;48.00;100832.66;4920594;28;45582;-39
2023/09/12 05:23:32;;;;;;;;;15.00;10.25;;;;;26.24;47.90;100836.50;4920361;28;45631;-40
2023/09/12 05:25:58;;;;;;;;;11.75;11.75;;;;;26.24;48.24;100835.66;4920390;28;45477;-38
2023/09/12 05:28:23;;;;;;;;;12.50;10.75;;;;;26.20;48.25;100840.38;4920748;28;45534;-41
2023/09/12 05:30:49;;;;;;;;;16.25;11.25;;;;;26.16;47.84;100827.47;4920427;28;45444;-38
2023/09/12 05:33:17;;;;;;;;;17.00;12.50;;;;;26.15;47.66;100833.72;4902947;28;47366;-39
2023/09/12 05:35:44;;;;;;;;;11.25;10.25;;;;;26.13;48.19;100833.03;4920037;28;45684;-40
2023/09/12 05:38:09;;;;;;;;;11.75;9.75;;;;;26.11;48.31;100827.81;4920085;28;45350;-41
2023/09/12 05:40:35;;;;;;;;;12.00;10.50;;;;;26.10;48.19;100836.75;4903101;28;45317;-40
2023/09/12 05:43:00;;;;;;;;;6.50;5.00;;;;;26.08;48.31;100836.00;4920006;28;45272;-41
2023/09/12 05:45:25;;;;;;;;;10.50;10.25;;;;;26.05;48.05;100836.25;4920054;28;49350;-43
2023/09/12 05:47:51;;;;;;;;;12.75;11.00;;;;;26.04;48.24;100826.59;4920042;28;45516;-45
2023/09/12 05:50:17;;;;;;;;;12.75;11.25;;;;;26.02;48.32;100825.88;4920091;28;45336;-44
2023/09/12 05:52:44;;;;;;;;;14.00;9.50;;;;;26.01;48.53;100826.84;4919687;28;46452;-45
2023/09/12 05:55:10;;;;;;;;;15.75;12.00;;;;;26.00;48.63;100825.16;4919782;28;45284;-41
2023/09/12 05:57:35;;;;;;;;;9.25;9.25;;;;;25.99;48.58;100831.41;4919942;28;45370;-41
2023/09/12 06:00:00;;;;;;;;;12.00;10.00;;;;;25.99;48.24;100828.75;4919977;28;45331;-43
2023/09/12 06:02:27;;;;;;;;;14.00;11.00;;;;;25.97;48.53;100831.56;4919772;28;47018;-40
2023/09/12 06:04:52;;;;;;;;;14.75;11.75;;;;;25.96;48.60;100835.16;4919782;28;45710;-42
2023/09/12 06:07:17;;;;;;;;;13.00;11.00;;;;;25.93;48.53;100832.75;4919396;28;53427;-42
2023/09/12 06:09:43;;;;;;;;;10.25;10.00;;;;;25.91;48.67;100837.31;4919860;28;45268;-38
2023/09/12 06:12:08;;;;;;;;;14.75;11.00;;;;;25.90;48.56;100836.50;4919111;28;55006;-39
2023/09/12 06:14:33;;;;;;;;;16.50;12.25;;;;;25.91;48.31;100848.81;4919543;28;45315;-39
2023/09/12 06:16:59;;;;;;;;;13.00;9.75;;;;;25.91;48.22;100846.16;4919768;28;45277;-39
2023/09/12 06:19:24;;;;;;;;;11.50;9.75;;;;;25.89;48.87;100852.56;4920043;28;45229;-43
2023/09/12 06:21:50;;;;;;;;;11.25;9.25;;;;;25.89;48.36;100853.38;4919338;28;45407;-41
2023/09/12 06:24:18;;;;;;;;;12.25;11.75;;;;;25.88;48.52;100854.34;4919267;28;45359;-42
2023/09/12 06:26:47;;;;;;;;;14.50;13.00;;;;;25.88;48.65;100858.84;4919423;28;45421;-43
2023/09/12 06:29:13;;;;;;;;;13.75;13.00;;;;;25.85;48.40;100845.78;4918295;28;45428;-42
2023/09/12 06:31:41;;;;;;;;;14.25;12.25;;;;;25.83;48.95;100853.88;4917945;28;48135;-42
2023/09/12 06:34:06;;;;;;;;;15.00;11.75;;;;;25.83;48.74;100864.50;4918082;28;45318;-40
2023/09/12 06:36:32;;;;;;;;;14.00;13.00;;;;;25.82;48.60;100860.16;4919358;28;45301;-41
2023/09/12 06:38:58;;;;;;;;;17.50;13.00;;;;;25.82;48.65;100856.63;4919690;28;45554;-38
2023/09/12 06:41:23;;;;;;;;;16.25;14.50;;;;;25.81;48.71;100862.91;4919004;28;45296;-39
2023/09/12 06:43:48;;;;;;;;;16.25;15.00;;;;;25.79;48.85;100852.41;4919039;28;45340;-39
2023/09/12 06:46:14;;;;;;;;;18.75;11.00;;;;;25.77;48.64;100847.25;4918535;28;45398;-42
2023/09/12 06:48:39;;;;;;;;;13.00;12.50;;;;;25.78;48.50;100846.28;4919379;28;45315;-42
2023/09/12 06:51:06;;;;;;;;;12.50;10.75;;;;;25.78;48.76;100840.97;4918919;28;45482;-40
2023/09/12 06:53:31;;;;;;;;;12.00;10.25;;;;;25.82;48.77;100840.72;4918906;28;45901;-43
2023/09/12 06:55:59;;;;;;;;;16.25;12.00;;;;;25.82;48.90;100846.88;4919417;28;45285;-45
2023/09/12 06:58:25;;;;;;;;;12.25;10.00;;;;;25.85;48.66;100846.63;4919180;28;45565;-43
2023/09/12 07:00:51;;;;;;;;;14.00;11.25;;;;;25.89;48.61;100842.78;4918655;28;46539;-45
2023/09/12 07:03:16;;;;;;;;;11.50;10.75;;;;;25.89;48.48;100842.78;4918827;28;45344;-45
2023/09/12 07:05:42;;;;;;;;;13.25;10.50;;;;;25.89;48.75;100840.13;4918985;28;45373;-42
2023/09/12 07:08:08;;;;;;;;;13.50;9.75;;;;;25.88;48.67;100841.06;4901342;28;45469;-41
2023/09/12 07:10:34;;;;;;;;;10.50;9.00;;;;;25.87;48.57;100844.69;4917882;28;46442;-43
2023/09/12 07:12:59;;;;;;;;;13.00;10.50;;;;;25.90;48.50;100849.78;4918249;28;45478;-43
2023/09/12 07:15:24;;;;;;;;;12.50;10.00;;;;;25.93;48.58;100854.00;4918010;28;45275;-45
2023/09/12 07:17:50;;;;;;;;;11.00;9.00;;;;;25.96;48.69;100863.53;4918237;28;45268;-41
2023/09/12 07:20:17;;;;;;;;;13.00;9.50;;;;;25.98;48.46;100861.59;4917759;28;46414;-43
2023/09/12 07:22:42;;;;;;;;;11.25;10.75;;;;;25.97;48.44;100860.75;4918163;28;45304;-45
2023/09/12 07:25:11;;;;;;;;;14.00;12.00;;;;;25.97;48.39;100849.28;4918784;28;45349;-40
2023/09/12 07:27:36;;;;;;;;;9.00;9.00;;;;;25.99;48.51;100865.94;4917588;28;45500;-44
2023/09/12 07:30:03;;;;;;;;;10.75;10.75;;;;;25.98;48.56;100865.09;4918644;28;47202;-46
2023/09/12 07:32:28;;;;;;;;;10.50;9.25;;;;;26.00;48.75;100860.53;4918766;28;45857;-44
2023/09/12 07:34:54;;;;;;;;;9.50;7.75;;;;;26.01;48.37;100871.97;4901515;28;45323;-43
2023/09/12 07:37:20;;;;;;;;;11.00;9.00;;;;;26.04;48.55;100871.75;4918809;28;45310;-40
2023/09/12 07:39:45;;;;;;;;;9.75;9.00;;;;;26.04;48.24;100874.41;4917986;28;46500;-43
2023/09/12 07:42:10;;;;;;;;;13.75;8.50;;;;;26.03;48.15;100878.03;4917835;28;60643;-46
2023/09/12 07:44:36;;;;;;;;;9.50;9.50;;;;;26.04;47.93;100869.09;4917911;28;54805;-44
2023/09/12 07:47:01;;;;;;;;;10.75;8.00;;;;;26.04;47.97;100871.75;4918808;28;45525;-46
2023/09/12 07:49:27;;;;;;;;;9.50;7.00;;;;;26.02;48.44;100871.84;4900984;28;46312;-43
2023/09/12 07:51:52;;;;;;;;;10.50;10.00;;;;;26.08;48.41;100870.53;4918227;28;45381;-40
2023/09/12 07:54:17;;;;;;;;;10.00;9.00;;;;;26.08;48.36;100863.41;4918471;28;45362;-42
2023/09/12 07:56:43;;;;;;;;;7.75;7.00;;;;;26.08;48.37;100865.22;4918468;28;45248;-47
2023/09/12 07:59:10;;;;;;;;;11.75;10.50;;;;;26.07;48.25;100868.84;4920205;28;45526;-42
2023/09/12 08:01:35;;;;;;;;;7.50;7.50;;;;;26.06;48.23;100872.47;4920762;28;45405;-38
2023/09/12 08:04:00;;;;;;;;;9.50;9.50;;;;;26.03;47.85;100876.19;4921216;28;45652;-41
2023/09/12 08:06:26;;;;;;;;;11.25;9.75;;;;;26.04;48.15;100872.59;4920659;28;45419;-43
2023/09/12 08:08:52;;;;;;;;;11.75;9.00;;;;;26.04;48.21;100871.75;4920589;28;46442;-47
2023/09/12 08:11:17;;;;;;;;;8.25;8.25;;;;;26.02;48.67;100871.84;4921022;28;45458;-45
2023/09/12 08:13:42;;;;;;;;;9.75;9.00;;;;;26.03;48.43;100873.53;4904319;28;45344;-42
2023/09/12 08:16:08;;;;;;;;;9.00;8.00;;;;;26.03;48.04;100876.19;4904409;28;45594;-41
2023/09/12 08:18:33;;;;;;;;;8.75;7.75;;;;;26.04;47.98;100888.50;4921557;28;45475;-44
2023/09/12 08:20:59;;;;;;;;;8.25;7.25;;;;;26.06;48.45;100886.59;4921225;28;45328;-41
2023/09/12 08:23:25;;;;;;;;;9.25;7.00;;;;;26.08;48.19;100897.09;4921315;28;45454;-38
2023/09/12 08:25:52;;;;;;;;;10.50;8.50;;;;;26.08;48.26;100900.59;4888534;28;45341;-42
2023/09/12 08:28:18;;;;;;;;;7.00;7.00;;;;;26.08;47.96;100894.44;4920536;28;57202;-42
2023/09/12 08:30:46;;;;;;;;;10.25;8.00;;;;;26.09;47.99;100890.81;4921070;28;45183;-43
2023/09/12 08:33:11;;;;;;;;;9.00;7.00;;;;;26.06;47.96;100894.56;4920050;28;45328;-43
2023/09/12 08:35:36;;;;;;;;;10.00;5.50;;;;;26.06;48.03;100896.38;4920379;28;45547;-42
2023/09/12 08:38:02;;;;;;;;;9.00;9.00;;;;;26.05;48.07;100892.03;4921078;28;46569;-40
2023/09/12 08:40:29;;;;;;;;;10.00;7.75;;;;;26.03;47.86;100883.34;4920952;28;45684;-40
2023/09/12 08:42:57;;;;;;;;;12.75;8.25;;;;;26.02;47.83;100894.91;4921017;28;45450;-42
2023/09/12 08:45:22;;;;;;;;;7.50;6.25;;;;;26.02;48.03;100900.22;4921253;28;45637;-41
2023/09/12 08:47:53;;;;;;;;;8.50;7.50;;;;;26.01;48.09;100898.53;4903666;28;47421;-41
2023/09/12 08:50:20;;;;;;;;;6.50;6.50;;;;;26.00;48.04;100910.13;4920825;28;45406;-41
2023/09/12 08:52:47;;;;;;;;;6.50;5.50;;;;;26.00;47.95;100899.50;4921010;28;45500;-42
2023/09/12 08:55:13;;;;;;;;;8.25;7.25;;;;;26.00;48.17;100899.50;4921073;28;45523;-40
2023/09/12 08:57:41;;;;;;;;;10.75;8.75;;;;;26.00;48.42;100907.47;4919486;28;45313;-40
2023/09/12 09:00:14;;;;;;;;;8.00;7.25;;;;;26.00;47.94;100897.72;4920991;28;45193;-40
2023/09/12 09:02:43;;;;;;;;;9.50;7.00;;;;;25.98;47.80;100894.31;4920737;28;45179;-39
2023/09/12 09:05:11;;;;;;;;;9.50;7.75;;;;;26.01;47.75;100903.84;4920842;28;45482;-41
2023/09/12 09:07:42;;;;;;;;;7.75;7.75;;;;;26.00;48.06;100902.16;4903670;28;48676;-39
2023/09/12 09:10:10;;;;;;;;;8.00;6.00;;;;;26.00;47.84;100900.38;4920588;28;45855;-39
2023/09/12 09:12:35;;;;;;;;;7.25;7.25;;;;;26.00;48.29;100908.34;4921649;28;45399;-40
2023/09/12 09:15:21;;;;;;;;;11.75;9.00;;;;;26.02;48.17;100900.22;4921289;28;45251;-38
2023/09/12 09:17:47;;;;;;;;;10.50;7.25;;;;;26.02;48.15;100901.06;4903281;28;45559;-44
2023/09/12 09:20:25;;;;;;;;;9.00;8.25;;;;;26.04;48.33;100899.13;4920557;28;45364;-41
2023/09/12 09:23:08;;;;;;;;;10.25;9.50;;;;;26.04;47.95;100899.13;4921083;28;45304;-39
2023/09/12 09:25:51;;;;;;;;;13.00;10.00;;;;;26.04;48.11;100899.13;4920883;28;45219;-41
2023/09/12 09:28:21;;;;;;;;;10.00;7.50;;;;;26.06;47.90;100891.06;4920050;28;46550;-42
2023/09/12 09:30:48;;;;;;;;;11.25;8.75;;;;;26.05;47.75;100890.22;4920110;28;45268;-43
2023/09/12 09:33:14;;;;;;;;;10.00;8.75;;;;;26.05;48.01;100892.88;4920295;28;45368;-42
2023/09/12 09:35:46;;;;;;;;;11.00;9.50;;;;;26.05;47.86;100889.38;4920609;28;45326;-39
2023/09/12 09:38:16;;;;;;;;;11.75;8.50;;;;;26.07;48.34;100900.72;4919881;28;46374;-39
2023/09/12 09:40:43;;;;;;;;;8.50;8.50;;;;;26.08;48.19;100905.91;4919869;28;45760;-41
2023/09/12 09:43:08;;;;;;;;;9.75;8.75;;;;;26.07;48.19;100898.91;4920451;28;45277;-38
2023/09/12 09:45:43;;;;;;;;;9.00;9.00;;;;;26.08;48.51;100902.41;4920260;28;45616;-44
2023/09/12 09:48:08;;;;;;;;;14.50;11.00;;;;;26.05;48.39;100902.66;4919979;28;46714;-41
2023/09/12 09:50:37;;;;;;;;;11.00;9.25;;;;;26.05;48.23;100905.31;4920074;28;45228;-41
2023/09/12 09:53:05;;;;;;;;;11.25;8.50;;;;;26.04;48.34;100925.69;4920058;28;45414;-42
2023/09/12 09:55:32;;;;;;;;;11.50;10.50;;;;;26.04;48.96;100922.22;4920065;28;45435;-41
2023/09/12 09:57:57;;;;;;;;;14.00;8.25;;;;;26.03;48.94;100929.31;4919653;28;46378;-41
2023/09/12 10:00:23;;;;;;;;;12.00;10.00;;;;;26.04;49.13;100935.50;4919532;28;45361;-45
2023/09/12 10:02:53;;;;;;;;;14.75;10.50;;;;;26.04;49.50;100951.44;4919981;28;45367;-38
2023/09/12 10:05:20;;;;;;;;;13.75;13.00;;;;;26.01;49.30;100957.81;4919996;28;45343;-43
2023/09/12 10:07:49;;;;;;;;;14.00;13.00;;;;;26.02;50.19;100958.66;4902262;28;46113;-41
2023/09/12 10:10:16;;;;;;;;;13.25;12.25;;;;;26.01;50.07;100956.97;4919593;28;45334;-43
2023/09/12 10:12:56;;;;;;;;;14.50;11.25;;;;;26.01;50.27;100963.13;4920113;28;45356;-41
2023/09/12 10:15:23;;;;;;;;;12.75;9.50;;;;;26.01;50.72;100967.59;4919836;28;45281;-41
2023/09/12 10:17:57;;;;;;;;;15.50;11.25;;;;;26.00;50.78;100960.59;4919347;28;46205;-42
2023/09/12 10:20:27;;;;;;;;;12.00;11.50;;;;;25.99;50.85;100967.72;4918788;28;45987;-40
2023/09/12 10:23:07;;;;;;;;;12.50;12.00;;;;;25.98;51.72;100963.38;4919449;28;45475;-40
2023/09/12 10:25:36;;;;;;;;;15.25;10.50;;;;;25.96;51.72;100964.47;4919758;28;45347;-46
2023/09/12 10:28:03;;;;;;;;;13.75;11.00;;;;;25.96;51.80;100970.59;4919293;28;46349;-40
2023/09/12 10:30:30;;;;;;;;;14.50;12.25;;;;;25.95;51.76;100979.53;4919260;28;45428;-41
2023/09/12 10:32:57;;;;;;;;;12.50;10.75;;;;;25.92;51.91;100977.09;4919449;28;45420;-41
2023/09/12 10:35:23;;;;;;;;;14.75;10.75;;;;;25.88;52.39;100973.84;4919445;28;45470;-41
2023/09/12 10:37:50;;;;;;;;;14.00;11.50;;;;;25.87;52.12;100966.84;4919336;28;46373;-44
2023/09/12 10:40:17;;;;;;;;;13.50;10.75;;;;;25.85;52.38;100966.09;4918862;28;45280;-43
2023/09/12 10:42:42;;;;;;;;;10.25;9.50;;;;;25.82;52.65;100950.41;4919749;28;45368;-45
2023/09/12 10:45:09;;;;;;;;;11.50;10.75;;;;;25.81;52.44;100954.03;4919390;28;45573;-46
2023/09/12 10:47:36;;;;;;;;;19.00;11.25;;;;;25.80;52.75;100951.50;4919058;28;45424;-46
2023/09/12 10:50:02;;;;;;;;;13.25;11.50;;;;;25.77;52.55;100956.09;4918918;28;45389;-42
2023/09/12 10:52:28;;;;;;;;;10.25;9.25;;;;;25.75;52.61;100941.22;4918948;28;45315;-40
2023/09/12 10:54:55;;;;;;;;;12.50;9.25;;;;;25.74;52.67;100942.22;4919262;28;45533;-42
2023/09/12 10:57:20;;;;;;;;;8.50;7.25;;;;;25.72;52.51;100936.16;4918746;28;45458;-41
2023/09/12 11:00:12;;;;;;;;;7.00;5.25;;;;;25.70;52.81;100936.25;4919004;28;45412;-45
2023/09/12 11:02:39;;;;;;;;;13.25;9.75;;;;;25.68;53.39;100930.25;4919042;28;45297;-43
2023/09/12 11:05:07;;;;;;;;;5.00;3.00;;;;;25.64;53.18;100920.81;4919184;28;45502;-41
2023/09/12 11:07:38;;;;;;;;;10.25;8.25;;;;;25.62;53.48;100928.91;4918734;28;45554;-44
2023/09/12 11:10:20;;;;;;;;;9.75;7.00;;;;;25.61;53.52;100932.50;4918799;28;45669;-43
2023/09/12 11:12:56;;;;;;;;;7.75;6.25;;;;;25.59;53.20;100926.47;4919154;28;45326;-43
2023/09/12 11:15:25;;;;;;;;;3.50;3.00;;;;;25.58;53.34;100932.75;4918809;28;45592;-42
2023/09/12 11:18:01;;;;;;;;;7.75;7.00;;;;;25.57;53.41;100935.53;4901532;28;47055;-46